Time;durP1;ratioP1;P1;durP2;ratioP2;P2;SDS_P1;SDS_P2;PMS_P1;PMS_P2;Temp;Humidity;BMP_temperature;BMP_pressure;BME280_temperature;BME280_humidity;BME280_pressure;Samples;Min_cycle;Max_cycle;Signal;HPM_P1;HPM_P2
2022/06/17 00:00:50;;;;;;;10.65;7.80;;;13.50;99.90;;;;;;6276548;22;20041;-79
2022/06/17 00:03:17;;;;;;;10.45;8.20;;;13.40;99.90;;;;;;6249438;22;20328;-79
2022/06/17 00:05:43;;;;;;;12.15;7.60;;;13.40;99.90;;;;;;6276637;22;20098;-79
2022/06/17 00:08:18;;;;;;;10.75;7.55;;;13.40;99.90;;;;;;6276681;22;20026;-79
2022/06/17 00:10:44;;;;;;;13.77;7.97;;;13.40;99.90;;;;;;6249451;22;20016;-79
2022/06/17 00:13:17;;;;;;;13.73;7.57;;;13.40;99.90;;;;;;6249234;22;20015;-81
2022/06/17 00:15:45;;;;;;;12.23;7.28;;;13.40;99.90;;;;;;6249363;22;20020;-79
2022/06/17 00:18:12;;;;;;;10.73;7.80;;;13.40;99.90;;;;;;6276530;22;20149;-79
2022/06/17 00:20:38;;;;;;;10.85;8.00;;;13.40;99.90;;;;;;6276308;22;20011;-79
2022/06/17 00:23:10;;;;;;;10.63;7.60;;;13.40;99.90;;;;;;6249302;22;20058;-79
2022/06/17 00:25:37;;;;;;;7.90;7.00;;;13.40;99.90;;;;;;6275895;22;20015;-79
2022/06/17 00:28:05;;;;;;;11.05;7.18;;;13.30;99.90;;;;;;6276042;22;20020;-79
2022/06/17 00:30:32;;;;;;;12.40;7.70;;;13.30;99.90;;;;;;6276199;22;20023;-79
2022/06/17 00:33:01;;;;;;;11.10;7.85;;;13.30;99.90;;;;;;6276188;22;20012;-79
2022/06/17 00:35:31;;;;;;;10.52;7.28;;;13.30;99.90;;;;;;6276146;22;20016;-79
2022/06/17 00:37:58;;;;;;;12.55;7.45;;;13.30;99.90;;;;;;6249116;22;20019;-79
2022/06/17 00:40:26;;;;;;;8.60;6.82;;;13.20;99.90;;;;;;6249062;22;20058;-80
2022/06/17 00:42:53;;;;;;;7.07;6.38;;;13.30;99.90;;;;;;6249038;22;20087;-79
2022/06/17 00:45:22;;;;;;;10.55;7.55;;;13.20;99.90;;;;;;6276082;22;20016;-79
2022/06/17 00:48:06;;;;;;;10.60;6.85;;;13.10;99.90;;;;;;6276131;22;20055;-79
2022/06/17 00:50:39;;;;;;;11.88;7.40;;;13.20;99.90;;;;;;6249046;22;20147;-79
2022/06/17 00:53:28;;;;;;;9.38;7.07;;;13.20;99.90;;;;;;6275629;22;20512;-79
2022/06/17 00:56:08;;;;;;;11.05;6.90;;;13.20;99.90;;;;;;6276026;22;20339;-79
2022/06/17 00:58:57;;;;;;;11.75;6.90;;;13.20;99.90;;;;;;6247978;22;20031;-79
2022/06/17 01:01:23;;;;;;;10.07;7.38;;;13.20;99.90;;;;;;6275710;22;20122;-79
2022/06/17 01:03:53;;;;;;;8.68;6.72;;;13.20;99.90;;;;;;6248806;22;20095;-79
2022/06/17 01:06:23;;;;;;;9.88;6.80;;;13.20;99.90;;;;;;6275972;22;20023;-79
2022/06/17 01:11:45;;;;;;;8.20;6.65;;;13.20;99.90;;;;;;6275867;22;20038;-80
2022/06/17 01:14:14;;;;;;;14.77;7.28;;;13.20;99.90;;;;;;6248584;22;20102;-79
2022/06/17 01:16:41;;;;;;;9.80;6.93;;;13.30;99.90;;;;;;6275941;22;20094;-79
2022/06/17 01:19:15;;;;;;;10.05;6.68;;;13.40;99.90;;;;;;6276080;22;20047;-79
2022/06/17 01:22:06;;;;;;;9.95;6.70;;;13.40;99.90;;;;;;6276183;22;20386;-79
2022/06/17 01:24:32;;;;;;;8.63;6.35;;;13.40;99.90;;;;;;6152216;23;20028;-79
2022/06/17 01:26:58;;;;;;;9.60;6.97;;;13.50;99.90;;;;;;6152037;23;20479;-79
2022/06/17 01:29:24;;;;;;;8.32;6.60;;;13.60;99.90;;;;;;6152163;23;20089;-79
2022/06/17 01:31:52;;;;;;;11.70;7.80;;;13.60;99.90;;;;;;6152261;23;20100;-79
2022/06/17 01:34:18;;;;;;;9.27;7.07;;;13.50;99.90;;;;;;6127897;23;20097;-79
2022/06/17 01:36:45;;;;;;;13.40;7.60;;;13.50;99.90;;;;;;6152039;23;20022;-79
2022/06/17 01:39:13;;;;;;;12.07;7.63;;;13.60;99.90;;;;;;6152387;23;20022;-79
2022/06/17 01:41:41;;;;;;;7.55;6.80;;;13.50;99.90;;;;;;6103629;23;20021;-79
2022/06/17 01:44:15;;;;;;;8.93;7.30;;;13.60;99.90;;;;;;6127747;23;20346;-79
2022/06/17 01:46:47;;;;;;;11.48;7.03;;;13.60;99.90;;;;;;6152374;23;20028;-79
2022/06/17 01:49:19;;;;;;;10.85;7.20;;;13.60;99.90;;;;;;6152043;23;20021;-79
2022/06/17 01:52:00;;;;;;;8.50;6.47;;;13.60;99.90;;;;;;6152400;23;20092;-79
2022/06/17 01:54:36;;;;;;;10.75;6.72;;;13.60;99.90;;;;;;6152148;23;20021;-79
2022/06/17 01:57:05;;;;;;;12.45;7.28;;;13.60;99.90;;;;;;6127263;23;20061;-79
2022/06/17 01:59:43;;;;;;;11.45;7.60;;;13.60;99.90;;;;;;6127231;23;20079;-79
2022/06/17 02:02:13;;;;;;;12.70;7.32;;;13.70;99.90;;;;;;6241070;22;20102;-79
2022/06/17 02:04:44;;;;;;;9.43;6.93;;;13.60;99.90;;;;;;6248603;22;20012;-79
2022/06/17 02:07:36;;;;;;;12.27;7.03;;;13.70;99.90;;;;;;6275664;22;20015;-79
2022/06/17 02:10:02;;;;;;;9.98;6.70;;;13.80;99.90;;;;;;6242470;22;20067;-79
2022/06/17 02:12:29;;;;;;;11.82;7.60;;;13.80;99.90;;;;;;6276180;22;20394;-79
2022/06/17 02:14:55;;;;;;;11.90;7.80;;;13.80;99.90;;;;;;6277389;22;20016;-80
2022/06/17 02:17:29;;;;;;;9.63;6.97;;;13.80;99.90;;;;;;6277450;22;20024;-79
2022/06/17 02:19:56;;;;;;;12.88;7.75;;;13.80;99.90;;;;;;6277448;22;20019;-83
2022/06/17 02:22:29;;;;;;;11.57;7.95;;;13.80;99.90;;;;;;6277513;22;20023;-80
2022/06/17 02:25:06;;;;;;;13.73;8.63;;;13.70;99.90;;;;;;6277507;22;20015;-79
2022/06/17 02:27:34;;;;;;;10.93;7.43;;;13.70;99.90;;;;;;6277319;22;20394;-79
2022/06/17 02:30:02;;;;;;;15.40;8.20;;;13.70;99.90;;;;;;6277273;22;20018;-79
2022/06/17 02:32:30;;;;;;;10.73;8.65;;;13.60;99.90;;;;;;6277354;22;20085;-79
2022/06/17 02:35:00;;;;;;;11.50;8.15;;;13.60;99.90;;;;;;6277232;22;20019;-79
2022/06/17 02:37:27;;;;;;;13.18;8.68;;;13.60;99.90;;;;;;6277249;22;20061;-79
2022/06/17 02:39:57;;;;;;;14.50;8.68;;;13.50;99.90;;;;;;6250053;22;20504;-80
2022/06/17 02:42:31;;;;;;;15.25;9.05;;;13.60;99.90;;;;;;6277047;22;20011;-79
2022/06/17 02:45:04;;;;;;;12.90;9.10;;;13.50;99.90;;;;;;6277270;22;20347;-79
2022/06/17 02:47:31;;;;;;;15.48;9.50;;;13.60;99.90;;;;;;6250145;22;20044;-80
2022/06/17 02:49:58;;;;;;;12.60;9.60;;;13.60;99.90;;;;;;6277061;22;20012;-79
2022/06/17 02:52:32;;;;;;;15.07;10.15;;;13.80;99.90;;;;;;6250242;22;20106;-79
2022/06/17 02:55:01;;;;;;;13.15;9.75;;;13.70;99.90;;;;;;6276949;22;20019;-79
2022/06/17 02:57:30;;;;;;;17.08;10.10;;;13.80;99.90;;;;;;6276720;22;20015;-79
2022/06/17 03:00:09;;;;;;;16.67;10.40;;;13.80;99.90;;;;;;6248920;22;20020;-79
2022/06/17 03:02:40;;;;;;;14.02;10.43;;;13.80;99.90;;;;;;6276552;22;20393;-80
2022/06/17 03:05:26;;;;;;;13.75;10.43;;;13.90;99.90;;;;;;6276968;22;20015;-79
2022/06/17 03:07:53;;;;;;;13.80;10.13;;;13.90;99.90;;;;;;6277200;22;20343;-79
2022/06/17 03:10:32;;;;;;;16.00;10.70;;;14.00;99.90;;;;;;6277103;22;20008;-79
2022/06/17 03:13:12;;;;;;;14.27;10.48;;;14.10;99.90;;;;;;6277041;22;20339;-79
2022/06/17 03:15:40;;;;;;;13.93;10.95;;;14.10;99.90;;;;;;6250024;22;20022;-79
2022/06/17 03:18:07;;;;;;;11.50;10.07;;;14.30;99.90;;;;;;6276788;22;20015;-79
2022/06/17 03:20:35;;;;;;;13.95;10.80;;;14.20;99.90;;;;;;6274804;22;20031;-79
2022/06/17 03:23:26;;;;;;;15.30;10.05;;;14.30;99.90;;;;;;6276841;22;20143;-79
2022/06/17 03:26:09;;;;;;;14.68;10.65;;;14.30;99.90;;;;;;6276982;22;20027;-79
2022/06/17 03:28:40;;;;;;;15.10;11.20;;;14.30;99.90;;;;;;6249244;22;20046;-80
2022/06/17 03:31:11;;;;;;;;;;;14.40;99.90;;;;;;6277284;22;20585;-79
2022/06/17 03:33:46;;;;;;;15.93;10.98;;;14.50;99.90;;;;;;6276800;22;19924;-79
2022/06/17 03:36:31;;;;;;;13.02;9.18;;;14.60;99.90;;;;;;6276794;22;20478;-79
2022/06/17 03:39:00;;;;;;;18.00;11.00;;;14.60;99.90;;;;;;6276644;22;20019;-79
2022/06/17 03:41:38;;;;;;;13.63;10.10;;;14.60;99.90;;;;;;6276643;22;20015;-79
2022/06/17 03:44:10;;;;;;;15.10;11.65;;;14.60;99.90;;;;;;6275085;22;20018;-79
2022/06/17 03:46:43;;;;;;;14.77;10.85;;;14.60;99.90;;;;;;6276694;22;20317;-79
2022/06/17 03:49:27;;;;;;;14.30;11.23;;;14.60;99.90;;;;;;6276758;22;20015;-78
2022/06/17 03:52:00;;;;;;;13.82;9.70;;;14.70;99.90;;;;;;6276512;22;20425;-79
2022/06/17 03:54:26;;;;;;;14.88;10.60;;;14.70;99.90;;;;;;6224238;22;20374;-79
2022/06/17 03:56:53;;;;;;;15.35;11.00;;;14.70;99.90;;;;;;6248876;22;20051;-79
2022/06/17 03:59:23;;;;;;;16.27;11.40;;;14.70;99.90;;;;;;6249160;22;20419;-79
2022/06/17 04:01:57;;;;;;;13.55;10.07;;;14.80;99.90;;;;;;6276502;22;20026;-79
2022/06/17 04:04:37;;;;;;;12.80;10.85;;;14.80;99.90;;;;;;6276244;22;20015;-79
2022/06/17 04:07:03;;;;;;;17.83;11.60;;;14.90;99.90;;;;;;6276481;22;20020;-79
2022/06/17 04:09:37;;;;;;;14.15;11.02;;;14.90;99.90;;;;;;6249298;22;20026;-79
2022/06/17 04:12:27;;;;;;;13.45;10.82;;;15.00;99.90;;;;;;6276657;22;20027;-82
2022/06/17 04:15:16;;;;;;;13.95;11.02;;;15.20;99.90;;;;;;6276191;22;20382;-79
2022/06/17 04:17:48;;;;;;;13.30;11.13;;;15.20;99.90;;;;;;6275834;22;20451;-80
2022/06/17 04:20:22;;;;;;;15.18;11.48;;;15.30;99.90;;;;;;6276461;22;20015;-79
2022/06/17 04:22:50;;;;;;;14.50;11.30;;;15.40;99.90;;;;;;6249559;22;20035;-79
2022/06/17 04:25:25;;;;;;;17.88;11.23;;;15.50;99.90;;;;;;6276141;22;20398;-79
2022/06/17 04:27:57;;;;;;;12.70;10.32;;;15.60;99.90;;;;;;6249132;22;20079;-79
2022/06/17 04:30:33;;;;;;;14.65;11.30;;;15.60;99.90;;;;;;6249124;22;20130;-79
2022/06/17 04:33:11;;;;;;;14.57;11.13;;;15.80;99.90;;;;;;6276304;22;20066;-79
2022/06/17 04:35:36;;;;;;;13.65;10.38;;;15.80;99.90;;;;;;6275824;22;20016;-79
2022/06/17 04:38:03;;;;;;;12.10;10.20;;;15.80;99.90;;;;;;6276097;22;20439;-79
2022/06/17 04:40:43;;;;;;;14.75;10.60;;;15.80;99.90;;;;;;6249119;22;20019;-79
2022/06/17 04:43:40;;;;;;;14.20;10.15;;;15.90;99.90;;;;;;6276175;22;20378;-79
2022/06/17 04:46:08;;;;;;;13.13;10.10;;;16.00;99.90;;;;;;6272615;22;20056;-80
2022/06/17 04:48:35;;;;;;;14.07;10.43;;;16.00;99.90;;;;;;6248967;22;20403;-80
2022/06/17 04:51:02;;;;;;;13.13;10.45;;;16.10;99.90;;;;;;6276065;22;20011;-79
2022/06/17 04:53:29;;;;;;;16.17;10.07;;;16.10;99.90;;;;;;6276027;22;20027;-79
2022/06/17 04:55:55;;;;;;;18.30;10.38;;;16.30;99.90;;;;;;6274599;22;20027;-79
2022/06/17 04:58:24;;;;;;;12.98;10.18;;;16.30;99.90;;;;;;6275855;22;20016;-79
2022/06/17 05:00:54;;;;;;;11.82;9.82;;;16.40;99.90;;;;;;6276234;22;20015;-79
2022/06/17 05:03:28;;;;;;;13.43;10.18;;;16.40;99.90;;;;;;6276209;22;20015;-79
2022/06/17 05:05:54;;;;;;;15.45;10.73;;;16.40;99.90;;;;;;6249166;22;20019;-79
2022/06/17 05:08:27;;;;;;;13.07;10.15;;;16.40;99.90;;;;;;6248977;22;20012;-79
2022/06/17 05:11:08;;;;;;;13.07;9.68;;;16.40;99.90;;;;;;6275983;22;20015;-80
2022/06/17 05:13:44;;;;;;;12.73;9.97;;;16.50;99.90;;;;;;6275835;22;20016;-80
2022/06/17 05:16:12;;;;;;;13.48;9.82;;;16.40;99.90;;;;;;6276109;22;20242;-79
2022/06/17 05:18:39;;;;;;;13.60;10.00;;;16.50;99.90;;;;;;6223690;22;20280;-79
2022/06/17 05:21:07;;;;;;;12.38;10.13;;;16.60;99.90;;;;;;6249000;22;20016;-79
2022/06/17 05:23:33;;;;;;;14.35;10.20;;;16.60;99.90;;;;;;6275880;22;20022;-80
2022/06/17 05:25:59;;;;;;;13.20;10.02;;;16.70;99.90;;;;;;6275892;22;20364;-81
2022/06/17 05:28:26;;;;;;;14.57;9.95;;;16.70;99.90;;;;;;6275675;22;20026;-79
2022/06/17 05:30:55;;;;;;;12.13;10.25;;;16.80;99.90;;;;;;6248906;22;20450;-80
2022/06/17 05:33:21;;;;;;;13.02;9.82;;;16.80;99.90;;;;;;6248803;22;20016;-79
2022/06/17 05:35:48;;;;;;;13.85;9.63;;;16.90;99.90;;;;;;6276000;22;20327;-81
2022/06/17 05:38:14;;;;;;;13.52;10.05;;;17.00;99.90;;;;;;6276156;22;20019;-79
2022/06/17 05:40:41;;;;;;;15.40;9.88;;;17.00;99.90;;;;;;6275966;22;20019;-79
2022/06/17 05:43:07;;;;;;;11.75;9.05;;;17.10;99.90;;;;;;6248683;22;20020;-79
2022/06/17 05:45:33;;;;;;;13.23;9.27;;;17.20;99.90;;;;;;6248397;22;20332;-79
2022/06/17 05:47:59;;;;;;;15.85;9.43;;;17.20;99.90;;;;;;6249942;22;20027;-79
2022/06/17 05:50:27;;;;;;;11.63;9.52;;;17.40;99.90;;;;;;6277646;22;20439;-80
2022/06/17 05:52:56;;;;;;;13.10;9.10;;;17.40;99.90;;;;;;6250754;22;20023;-79
2022/06/17 05:55:24;;;;;;;10.65;8.23;;;17.50;99.90;;;;;;6277725;22;20090;-80
2022/06/17 05:57:49;;;;;;;13.35;10.35;;;17.50;99.90;;;;;;6277577;22;20022;-79
2022/06/17 06:00:17;;;;;;;14.32;10.05;;;17.60;99.90;;;;;;6277845;22;20087;-79
2022/06/17 06:02:43;;;;;;;16.83;10.07;;;17.60;99.90;;;;;;6251060;22;20027;-79
2022/06/17 06:05:13;;;;;;;15.40;9.35;;;17.60;99.90;;;;;;6277651;22;20019;-79
2022/06/17 06:07:39;;;;;;;17.38;10.70;;;17.70;99.90;;;;;;6278049;22;20445;-79
2022/06/17 06:10:07;;;;;;;16.45;10.05;;;17.70;99.90;;;;;;6277600;22;20011;-80
2022/06/17 06:15:17;;;;;;;11.45;9.40;;;17.90;99.90;;;;;;6277622;22;20470;-79
2022/06/17 06:17:47;;;;;;;16.15;10.63;;;18.10;99.90;;;;;;6277462;22;20011;-79
2022/06/17 06:20:14;;;;;;;13.57;9.60;;;18.10;99.90;;;;;;6277685;22;20015;-80
2022/06/17 06:22:40;;;;;;;13.02;9.63;;;18.20;99.90;;;;;;6250387;22;20016;-79
2022/06/17 06:25:06;;;;;;;12.00;10.35;;;18.30;99.90;;;;;;6250338;22;20015;-80
2022/06/17 06:27:34;;;;;;;16.95;9.85;;;18.30;99.90;;;;;;6277387;22;20019;-80
2022/06/17 06:29:59;;;;;;;14.35;9.65;;;18.40;99.90;;;;;;6277507;22;20015;-78
2022/06/17 06:32:25;;;;;;;12.10;10.27;;;18.40;99.90;;;;;;6277488;22;20055;-79
2022/06/17 06:34:52;;;;;;;12.25;10.45;;;18.30;99.90;;;;;;6277451;22;20022;-82
2022/06/17 06:37:18;;;;;;;14.75;10.48;;;18.30;99.90;;;;;;6250595;22;20364;-78
2022/06/17 06:39:44;;;;;;;12.18;9.63;;;18.40;99.90;;;;;;6277417;22;20023;-78
2022/06/17 06:42:09;;;;;;;14.68;10.98;;;18.50;99.90;;;;;;6224193;22;20015;-79
2022/06/17 06:44:35;;;;;;;15.00;10.15;;;18.70;99.90;;;;;;6250513;22;20436;-78
2022/06/17 06:47:01;;;;;;;10.73;9.55;;;18.80;99.90;;;;;;6277642;22;20019;-78
2022/06/17 06:49:26;;;;;;;14.98;9.88;;;19.10;99.90;;;;;;6249812;22;20085;-78
2022/06/17 06:51:52;;;;;;;15.60;9.95;;;19.10;99.90;;;;;;6250071;22;20020;-78
2022/06/17 06:54:18;;;;;;;13.98;10.73;;;19.30;99.90;;;;;;6277172;22;20370;-78
2022/06/17 06:56:43;;;;;;;11.77;9.38;;;19.40;99.90;;;;;;6277438;22;20020;-78
2022/06/17 06:59:11;;;;;;;16.25;10.30;;;19.60;99.90;;;;;;6249632;22;20076;-78
2022/06/17 07:01:37;;;;;;;14.52;9.52;;;19.90;99.90;;;;;;6277782;22;20102;-78
2022/06/17 07:04:04;;;;;;;14.23;9.88;;;20.30;99.90;;;;;;6277090;22;20101;-78
2022/06/17 07:06:31;;;;;;;12.57;9.88;;;20.50;99.90;;;;;;6277213;22;20019;-78
2022/06/17 07:08:57;;;;;;;13.45;9.80;;;20.60;99.90;;;;;;6250004;22;20011;-79
2022/06/17 07:11:22;;;;;;;15.90;9.30;;;20.50;99.90;;;;;;6281114;22;20066;-80
2022/06/17 07:13:48;;;;;;;13.35;9.52;;;20.50;99.90;;;;;;6251477;22;20394;-79
2022/06/17 07:16:14;;;;;;;13.20;9.32;;;20.60;99.90;;;;;;6277273;22;20016;-79
2022/06/17 07:18:39;;;;;;;15.65;9.23;;;20.60;99.90;;;;;;6276985;22;20331;-80
2022/06/17 07:21:08;;;;;;;14.60;8.95;;;20.70;99.90;;;;;;6276965;22;20339;-80
2022/06/17 07:23:40;;;;;;;8.98;8.07;;;20.90;99.90;;;;;;6248963;22;20015;-79
2022/06/17 07:26:16;;;;;;;9.05;8.02;;;21.20;99.90;;;;;;6249915;22;20439;-80
2022/06/17 07:28:43;;;;;;;11.63;8.45;;;21.70;99.90;;;;;;6224433;22;20414;-79
2022/06/17 07:31:08;;;;;;;10.73;7.75;;;22.00;99.90;;;;;;6277022;22;20019;-79
2022/06/17 07:33:35;;;;;;;10.18;7.82;;;22.50;99.90;;;;;;6249934;22;20281;-79
2022/06/17 07:36:03;;;;;;;12.88;7.18;;;23.50;99.70;;;;;;6249678;22;20019;-79
2022/06/17 07:41:23;;;;;;;10.32;7.15;;;25.30;83.70;;;;;;6276675;22;20026;-80
2022/06/17 07:43:49;;;;;;;10.40;7.30;;;26.20;74.40;;;;;;6249664;22;20051;-79
2022/06/17 07:46:15;;;;;;;10.30;7.60;;;26.50;69.40;;;;;;6276762;22;20085;-79
2022/06/17 07:48:42;;;;;;;7.68;6.05;;;26.50;68.30;;;;;;6250166;22;20018;-78
2022/06/17 07:51:08;;;;;;;9.90;6.35;;;26.30;69.80;;;;;;6250605;22;20031;-79
2022/06/17 07:53:36;;;;;;;10.07;5.60;;;26.10;71.10;;;;;;6277436;22;20447;-80
2022/06/17 07:56:03;;;;;;;9.40;5.63;;;26.00;68.70;;;;;;6250410;22;20339;-79
2022/06/17 07:58:30;;;;;;;7.88;5.25;;;26.10;66.60;;;;;;6276888;22;20501;-80
2022/06/17 08:00:56;;;;;;;6.05;4.25;;;26.60;62.90;;;;;;6249763;22;20024;-79
2022/06/17 08:03:22;;;;;;;6.55;4.57;;;26.80;62.40;;;;;;6277940;22;20022;-80
2022/06/17 08:05:51;;;;;;;6.63;5.13;;;26.90;60.80;;;;;;6277213;22;20020;-80
2022/06/17 08:08:21;;;;;;;4.87;4.30;;;26.90;59.10;;;;;;6277351;22;20026;-79
2022/06/17 08:10:55;;;;;;;8.07;3.97;;;26.60;59.30;;;;;;6277341;22;20016;-80
2022/06/17 08:13:22;;;;;;;7.32;4.00;;;26.20;60.30;;;;;;6283641;22;20012;-80
2022/06/17 08:15:51;;;;;;;11.30;3.95;;;25.70;60.20;;;;;;6258253;22;20347;-80
2022/06/17 08:18:17;;;;;;;8.07;3.90;;;25.50;61.10;;;;;;6278913;22;20091;-80
2022/06/17 08:20:42;;;;;;;8.45;4.00;;;25.40;62.70;;;;;;6277703;22;20055;-79
2022/06/17 08:23:09;;;;;;;5.38;3.47;;;25.60;61.20;;;;;;6249314;22;20410;-79
2022/06/17 08:25:36;;;;;;;8.43;3.38;;;26.10;60.30;;;;;;6276796;22;20050;-79
2022/06/17 08:28:05;;;;;;;7.78;3.42;;;26.10;58.40;;;;;;6223653;22;20019;-79
2022/06/17 08:30:47;;;;;;;5.05;3.03;;;26.00;59.00;;;;;;6276738;22;20022;-79
2022/06/17 08:33:13;;;;;;;7.90;3.90;;;26.30;59.90;;;;;;6276365;22;20099;-79
2022/06/17 08:35:48;;;;;;;7.45;3.45;;;26.50;59.20;;;;;;6276457;22;20055;-78
2022/06/17 08:38:19;;;;;;;6.40;3.30;;;27.00;56.30;;;;;;6249109;22;20077;-79
2022/06/17 08:40:53;;;;;;;7.15;3.83;;;27.70;54.50;;;;;;6249371;22;20051;-81
2022/06/17 08:43:46;;;;;;;7.03;3.20;;;28.40;50.50;;;;;;6276712;22;20019;-79
2022/06/17 08:46:33;;;;;;;6.95;3.15;;;28.60;51.80;;;;;;6249364;22;20019;-84
2022/06/17 08:49:38;;;;;;;10.27;2.90;;;28.30;52.50;;;;;;6248418;22;20101;-79
2022/06/17 08:52:16;;;;;;;14.05;3.50;;;27.80;53.40;;;;;;6276053;22;20016;-79
2022/06/17 08:55:06;;;;;;;5.70;3.00;;;27.30;53.30;;;;;;6276364;22;20023;-79
2022/06/17 08:58:04;;;;;;;5.45;3.10;;;26.80;56.30;;;;;;6249015;22;20126;-79
2022/06/17 09:00:29;;;;;;;5.65;3.45;;;26.30;57.40;;;;;;6248754;22;20321;-80
2022/06/17 09:03:19;;;;;;;5.68;3.42;;;25.70;58.20;;;;;;6276050;22;20070;-79
2022/06/17 09:06:25;;;;;;;6.67;3.47;;;25.20;60.80;;;;;;6276144;22;20016;-80
2022/06/17 09:08:59;;;;;;;7.75;3.70;;;24.90;60.90;;;;;;6275911;22;20095;-79
2022/06/17 09:12:03;;;;;;;8.07;3.70;;;24.50;62.80;;;;;;6276092;22;20028;-79
2022/06/17 09:14:53;;;;;;;6.85;4.00;;;24.50;63.20;;;;;;6152488;23;20116;-78
2022/06/17 09:17:27;;;;;;;7.82;3.88;;;24.40;63.20;;;;;;6152282;23;20022;-78
2022/06/17 09:19:58;;;;;;;8.30;3.92;;;24.40;65.40;;;;;;6152517;23;20017;-81
2022/06/17 09:22:30;;;;;;;7.15;4.28;;;24.90;64.40;;;;;;6153799;23;20022;-79
2022/06/17 09:25:05;;;;;;;19.85;5.93;;;25.60;61.30;;;;;;6154487;23;20437;-80
2022/06/17 09:27:35;;;;;;;8.43;4.63;;;26.50;58.30;;;;;;6129537;23;20481;-79
2022/06/17 09:30:15;;;;;;;5.50;3.60;;;27.30;56.10;;;;;;6154432;23;20029;-79
2022/06/17 09:32:50;;;;;;;6.05;3.38;;;28.20;54.30;;;;;;6154641;23;20476;-79
2022/06/17 09:35:39;;;;;;;6.25;3.70;;;28.70;54.50;;;;;;6154526;23;20057;-79
2022/06/17 09:38:13;;;;;;;9.25;3.33;;;29.00;52.90;;;;;;6154184;23;20025;-80
2022/06/17 09:40:49;;;;;;;6.05;3.17;;;29.00;52.50;;;;;;6154279;23;20017;-79
2022/06/17 09:43:22;;;;;;;5.03;3.10;;;29.00;51.40;;;;;;6154263;23;20017;-80
2022/06/17 09:45:57;;;;;;;6.65;3.25;;;29.00;52.20;;;;;;6129554;23;20018;-84
2022/06/17 09:49:00;;;;;;;11.32;2.90;;;28.60;51.20;;;;;;6154037;23;20104;-80
2022/06/17 09:51:35;;;;;;;5.28;2.95;;;28.10;51.10;;;;;;6182537;22;20091;-79
2022/06/17 09:54:23;;;;;;;7.18;3.15;;;27.70;51.40;;;;;;6277833;22;20015;-79
2022/06/17 09:56:58;;;;;;;5.28;3.03;;;27.60;52.00;;;;;;6277743;22;20030;-82
2022/06/17 09:59:36;;;;;;;3.72;3.22;;;27.80;52.10;;;;;;6277523;22;20035;-79
2022/06/17 10:02:13;;;;;;;6.13;3.08;;;27.90;50.70;;;;;;6277826;22;20023;-80
2022/06/17 10:04:39;;;;;;;8.15;2.83;;;28.00;51.40;;;;;;6250945;22;20347;-79
2022/06/17 10:07:14;;;;;;;6.78;3.35;;;28.00;52.30;;;;;;6277761;22;20095;-80
2022/06/17 10:10:02;;;;;;;6.55;3.30;;;28.10;52.00;;;;;;6277568;22;20051;-78
2022/06/17 10:12:49;;;;;;;5.45;2.75;;;28.10;51.30;;;;;;6277531;22;20074;-79
2022/06/17 10:19:07;;;;;;;5.80;2.88;;;28.00;50.90;;;;;;6154504;23;20021;-79
2022/06/17 10:21:42;;;;;;;5.82;2.67;;;27.90;52.40;;;;;;6154125;23;20022;-79
2022/06/17 10:24:26;;;;;;;3.90;2.47;;;27.90;51.90;;;;;;6129640;23;20159;-79
2022/06/17 10:27:43;;;;;;;5.80;3.03;;;28.00;53.70;;;;;;6153868;23;20025;-79
2022/06/17 10:30:41;;;;;;;7.75;3.00;;;28.50;51.70;;;;;;6095422;23;20120;-79
2022/06/17 10:33:10;;;;;;;8.32;3.38;;;28.80;50.80;;;;;;6008659;23;20366;-79
2022/06/17 10:35:39;;;;;;;6.82;3.53;;;29.30;50.30;;;;;;6009061;23;20020;-79
2022/06/17 10:38:28;;;;;;;6.22;3.15;;;29.70;49.20;;;;;;6009033;23;20031;-80
2022/06/17 10:40:54;;;;;;;7.25;3.20;;;29.80;49.20;;;;;;6009035;23;20027;-79
2022/06/17 10:43:23;;;;;;;7.55;3.42;;;29.70;49.70;;;;;;6008824;23;20027;-85
2022/06/17 10:45:50;;;;;;;7.77;3.23;;;29.50;49.20;;;;;;6009100;23;20334;-79
2022/06/17 10:48:40;;;;;;;4.30;3.15;;;29.30;50.10;;;;;;6009161;23;20038;-79
2022/06/17 10:51:08;;;;;;;6.72;2.60;;;29.20;50.00;;;;;;5985488;23;20047;-79
2022/06/17 10:53:56;;;;;;;5.68;2.80;;;29.00;49.70;;;;;;5985533;23;20050;-79
2022/06/17 10:56:29;;;;;;;6.10;2.60;;;29.00;50.90;;;;;;6090282;23;20557;-80
2022/06/17 10:58:58;;;;;;;7.07;3.10;;;29.00;49.70;;;;;;6094514;23;20022;-79
2022/06/17 11:01:25;;;;;;;10.45;2.78;;;29.00;50.00;;;;;;6094685;23;20022;-80
2022/06/17 11:04:08;;;;;;;5.97;3.10;;;29.10;50.40;;;;;;6094848;23;20023;-79
2022/06/17 11:06:43;;;;;;;4.38;2.67;;;29.00;49.80;;;;;;6152068;23;20072;-79
2022/06/17 11:09:20;;;;;;;8.50;3.58;;;29.00;50.00;;;;;;6171412;22;20443;-80
2022/06/17 11:12:03;;;;;;;5.35;3.63;;;28.80;48.80;;;;;;6277328;22;20016;-81
2022/06/17 11:14:31;;;;;;;4.50;3.20;;;28.60;50.00;;;;;;6277488;22;20027;-79
2022/06/17 11:16:58;;;;;;;8.18;3.08;;;28.60;50.10;;;;;;6278060;22;20027;-80
2022/06/17 11:19:26;;;;;;;9.77;3.17;;;28.70;49.70;;;;;;6250096;22;20443;-79
2022/06/17 11:22:02;;;;;;;8.55;3.38;;;28.70;49.80;;;;;;6277391;22;20459;-81
2022/06/17 11:24:40;;;;;;;7.65;3.67;;;28.80;50.20;;;;;;6276748;22;20016;-80
2022/06/17 11:27:35;;;;;;;6.15;3.35;;;28.60;49.20;;;;;;6225068;22;20041;-80
2022/06/17 11:30:23;;;;;;;6.68;3.58;;;28.50;49.80;;;;;;6277001;22;20450;-80
2022/06/17 11:32:49;;;;;;;6.85;4.13;;;28.50;50.10;;;;;;6277755;22;20019;-79
2022/06/17 11:35:24;;;;;;;5.82;3.40;;;28.30;50.30;;;;;;6277672;22;20069;-81
2022/06/17 11:37:51;;;;;;;5.85;3.42;;;28.40;51.60;;;;;;6277622;22;20045;-80
2022/06/17 11:40:27;;;;;;;6.15;2.90;;;28.60;51.30;;;;;;6250193;22;20026;-80
2022/06/17 11:43:00;;;;;;;5.90;2.83;;;28.90;52.40;;;;;;6276866;22;20406;-79
2022/06/17 11:45:31;;;;;;;7.53;3.63;;;29.20;52.70;;;;;;6277132;22;20027;-79
2022/06/17 11:48:05;;;;;;;5.80;3.10;;;29.40;50.20;;;;;;6249713;22;20073;-79
2022/06/17 11:50:37;;;;;;;8.52;3.10;;;29.50;50.80;;;;;;6249253;22;20014;-79
2022/06/17 11:53:20;;;;;;;5.95;3.28;;;30.10;50.30;;;;;;6276732;22;20536;-80
2022/06/17 11:55:49;;;;;;;5.93;3.55;;;31.50;46.90;;;;;;6276605;22;20447;-81
2022/06/17 11:58:17;;;;;;;8.15;3.15;;;32.70;45.50;;;;;;6276712;22;20058;-80
2022/06/17 12:00:52;;;;;;;6.88;3.25;;;33.80;44.50;;;;;;6246220;23;20016;-79
2022/06/17 12:03:41;;;;;;;5.13;3.20;;;34.70;41.50;;;;;;6246151;23;20106;-86
2022/06/17 12:06:20;;;;;;;4.47;2.28;;;34.90;40.90;;;;;;6245867;23;20059;-80
2022/06/17 12:09:01;;;;;;;6.20;2.75;;;34.60;40.80;;;;;;6218852;23;20016;-79
2022/06/17 12:11:42;;;;;;;8.82;2.47;;;34.50;41.20;;;;;;6245927;23;20016;-80
2022/06/17 12:14:20;;;;;;;5.55;3.30;;;34.50;41.20;;;;;;6245818;23;20016;-79
2022/06/17 12:16:46;;;;;;;6.78;3.42;;;34.80;39.40;;;;;;6245934;23;20016;-80
2022/06/17 12:19:20;;;;;;;6.53;2.75;;;34.60;39.50;;;;;;6247696;23;20355;-79
2022/06/17 12:21:45;;;;;;;7.00;3.08;;;34.20;39.70;;;;;;6220065;23;20519;-79
2022/06/17 12:24:36;;;;;;;5.35;3.20;;;33.80;39.70;;;;;;6246126;23;20055;-80
2022/06/17 12:27:07;;;;;;;6.13;2.75;;;33.50;39.70;;;;;;6245489;22;20020;-82
2022/06/17 12:29:38;;;;;;;6.00;2.67;;;33.00;41.80;;;;;;6245585;23;20016;-79
2022/06/17 12:32:14;;;;;;;3.97;2.78;;;33.30;42.10;;;;;;6218970;23;20103;-80
2022/06/17 12:34:53;;;;;;;5.50;2.97;;;33.80;40.70;;;;;;6219141;23;20016;-80
2022/06/17 12:37:31;;;;;;;6.80;2.65;;;33.90;40.30;;;;;;6245545;23;20062;-80
2022/06/17 12:40:09;;;;;;;7.68;3.13;;;34.60;40.30;;;;;;6245700;23;20055;-80
2022/06/17 12:43:12;;;;;;;4.60;2.90;;;35.40;39.40;;;;;;6218791;23;20103;-80
2022/06/17 12:46:03;;;;;;;5.65;2.80;;;36.00;36.90;;;;;;6245651;23;20039;-80
2022/06/17 12:48:53;;;;;;;5.03;3.00;;;35.80;37.00;;;;;;6245588;23;20016;-81
2022/06/17 12:55:13;;;;;;;6.47;2.63;;;35.50;38.00;;;;;;6245790;23;20108;-80
2022/06/17 12:58:03;;;;;;;6.20;2.85;;;35.80;36.10;;;;;;6114794;23;20049;-82
2022/06/17 13:00:34;;;;;;;;;;;35.90;36.60;;;;;;6125949;23;20453;-80
2022/06/17 13:03:13;;;;;;;5.13;2.38;;;36.10;36.70;;;;;;6152642;23;20329;-80
2022/06/17 13:05:44;;;;;;;5.10;2.58;;;36.40;37.50;;;;;;6127858;23;20052;-80
2022/06/17 13:08:37;;;;;;;7.07;2.75;;;36.60;37.00;;;;;;6152396;23;20017;-81
2022/06/17 13:11:21;;;;;;;4.78;2.63;;;36.60;35.10;;;;;;6152747;23;20053;-80
2022/06/17 13:14:06;;;;;;;6.22;2.58;;;36.40;36.20;;;;;;6128462;23;20013;-81
2022/06/17 13:16:37;;;;;;;4.18;2.60;;;36.40;35.10;;;;;;6128086;23;20025;-81
2022/06/17 13:19:18;;;;;;;9.52;3.08;;;36.30;35.80;;;;;;6127990;23;20047;-80
2022/06/17 13:21:50;;;;;;;5.18;2.60;;;36.30;35.20;;;;;;6152490;23;20056;-82
2022/06/17 13:24:16;;;;;;;4.65;2.50;;;35.90;36.70;;;;;;6152727;23;20048;-81
2022/06/17 13:27:07;;;;;;;6.43;2.67;;;35.40;37.70;;;;;;6127873;23;20017;-81